Latest Weather Observations for White Cliffs AWS

IDN60801

Issued at 3:03 pm EDT Tuesday 18 January 2022 (issued every 10 minutes, with the page automatically refreshed every 10 minutes)

About weather observations | Map of weather stations | Latest weather observations for NSW | Other Formats
Station Details ID: 046129 Name: WHITE CLIFFS AWS Lat: -30.85 Lon: 143.07 Height: 158.0 m
Data from the previous 72 hours. | See also: Recent months at White Cliffs AWS
Date/Time
EDT
Temp
°C
App
Temp
°C
Dew
Point
°C
Rel
Hum
%
Delta-T
°C
Wind Press
QNH
hPa
Press
MSL
hPa
Rain since
9am
mm
Dir  Spd
km/h
Gust
km/h
Spd
kts
Gust
kts
18/03:00pm 26.8 21.8 17.0 55 6.2 SSE 39 50 21 27 1009.6 1008.5 0.0
18/02:30pm 28.1 23.6 17.3 52 6.8 SSE 37 50 20 27 1010.0 1008.8 0.0
18/02:00pm 27.5 22.5 17.1 53 6.6 SSE 39 50 21 27 1010.2 1009.0 0.0
18/01:30pm 28.3 23.4 17.2 51 7.0 SSE 39 50 21 27 1010.4 1009.2 0.0
18/01:00pm 27.7 21.9 16.0 49 7.3 SSE 41 48 22 26 1010.8 1009.6 0.0
18/12:30pm 28.5 23.1 16.1 47 7.7 SSE 39 54 21 29 1011.3 1010.1 0.0
18/12:00pm 28.1 23.0 16.7 50 7.2 SSE 39 52 21 28 1011.0 1009.8 0.0
18/11:30am 26.7 21.8 16.3 53 6.4 SSE 37 50 20 27 1011.4 1010.2 0.0
18/11:00am 26.8 21.9 16.4 53 6.5 SE 37 46 20 25 1011.4 1010.2 0.0
18/10:30am 26.0 21.1 15.4 52 6.5 SSE 35 46 19 25 1011.8 1010.6 0.0
18/10:00am 25.5 21.2 15.5 54 6.1 SSE 32 41 17 22 1011.6 1010.4 0.0
18/09:30am 25.3 21.1 16.2 57 5.6 SSE 33 43 18 23 1011.0 1009.8 0.0
18/09:00am 25.2 21.7 16.4 58 5.4 SE 30 41 16 22 1010.8 1009.6 0.0
18/08:30am 24.9 21.9 16.9 61 5.0 SE 28 37 15 20 1010.7 1009.5 0.0
18/08:00am 24.8 21.7 16.5 60 5.1 SE 28 39 15 21 1010.8 1009.6 0.0
18/07:30am 24.8 22.3 16.2 58 5.3 SE 24 35 13 19 1010.3 1009.1 0.0
18/07:00am 24.8 22.3 16.2 58 5.3 SSE 24 32 13 17 1010.2 1009.0 0.0
18/06:30am 25.4 22.0 15.7 55 5.9 SSE 28 37 15 20 1010.1 1008.9 0.0
18/06:00am 25.5 22.4 15.5 54 6.1 SE 26 33 14 18 1009.0 1007.9 0.0
18/05:30am 25.5 21.6 15.5 54 6.1 SE 30 37 16 20 1008.2 1007.1 0.0
18/05:00am 25.3 22.3 15.9 56 5.8 ESE 26 32 14 17 1008.4 1007.3 0.0
18/04:30am 25.1 23.8 16.8 60 5.2 ESE 19 22 10 12 1008.7 1007.6 0.0
18/04:00am 25.8 23.7 16.1 55 6.0 SE 22 28 12 15 1008.6 1007.5 0.0
18/03:30am 25.5 24.1 16.9 59 5.4 ESE 20 26 11 14 1008.9 1007.8 0.0
18/03:00am 26.2 24.7 16.2 54 6.2 ESE 19 24 10 13 1009.5 1008.4 0.0
18/02:30am 27.7 25.3 14.3 43 8.1 SE 20 28 11 15 1010.2 1009.0 0.0
18/02:00am 28.2 24.3 13.3 40 8.9 SE 26 35 14 19 1010.3 1009.1 0.0
18/01:30am 28.3 24.1 13.4 40 8.9 SE 28 37 15 20 1010.2 1009.0 0.0
18/01:00am 28.4 24.9 13.5 40 8.9 SE 24 33 13 18 1010.6 1009.4 0.0
18/12:30am 28.8 23.7 13.1 38 9.3 SSE 32 39 17 21 1010.9 1009.7 0.0
18/12:00am 29.2 24.3 12.6 36 9.8 SSE 30 39 16 21 1011.4 1010.2 0.0
 
Date/Time
EDT
Temp
°C
App
Temp
°C
Dew
Point
°C
Rel
Hum
%
Delta-T
°C
Wind Press
QNH
hPa
Press
MSL
hPa
Rain since
9am
mm
Dir  Spd
km/h
Gust
km/h
Spd
kts
Gust
kts
17/11:30pm 29.4 24.8 12.3 34 10.1 SSE 28 39 15 21 1011.5 1010.3 0.0
17/11:00pm 29.5 25.7 12.4 35 10.1 SSE 24 35 13 19 1011.6 1010.4 0.0
17/10:30pm 29.6 24.2 12.1 34 10.3 SSE 32 41 17 22 1011.3 1010.1 0.0
17/10:00pm 29.7 24.0 11.7 33 10.5 SSE 33 44 18 24 1011.0 1009.8 0.0
17/09:30pm 29.9 23.3 11.4 32 10.8 SSE 37 48 20 26 1010.7 1009.5 0.0
17/09:00pm 30.3 24.2 11.8 32 10.9 S 35 54 19 29 1010.2 1009.0 0.0
17/08:30pm 30.6 23.8 12.0 32 11.0 S 39 56 21 30 1009.5 1008.4 0.0
17/08:28pm 30.7 23.9 12.1 32 11.0 S 39 57 21 31 1009.5 1008.4 0.0
17/08:00pm 31.4 24.5 11.7 29 11.6 S 39 52 21 28 1009.2 1008.1 0.0
17/07:41pm 31.7 24.4 11.5 29 11.9 S 41 59 22 32 1008.9 1007.8 0.0
17/07:30pm 31.8 23.9 11.6 29 11.9 S 44 56 24 30 1008.8 1007.7 0.0
17/07:00pm 32.3 24.4 10.9 27 12.5 S 43 59 23 32 1008.0 1006.9 0.0
17/06:30pm 32.6 24.6 11.2 27 12.6 S 44 61 24 33 1007.5 1006.4 0.0
17/06:00pm 33.9 26.1 11.1 25 13.5 S 43 57 23 31 1007.1 1006.0 0.0
17/05:30pm 34.4 26.5 10.9 24 13.8 S 43 54 23 29 1006.9 1005.8 0.0
17/05:00pm 36.1 28.6 11.0 22 14.9 S 41 57 22 31 1006.8 1005.7 0.0
17/04:30pm 37.4 29.9 10.7 20 15.9 S 41 56 22 30 1006.5 1005.4 0.0
17/04:00pm 37.0 31.0 8.8 18 16.3 SSE 30 39 16 21 1006.7 1005.6 0.0
17/03:30pm 37.9 31.5 8.6 17 16.9 S 32 39 17 21 1006.9 1005.8 0.0
17/03:00pm 37.1 31.5 8.8 18 16.4 SSE 28 39 15 21 1006.9 1005.8 0.0
17/02:30pm 36.9 31.3 8.7 18 16.2 SSE 28 37 15 20 1007.0 1005.9 0.0
17/02:00pm 37.3 32.7 8.2 17 16.7 SSE 22 33 12 18 1007.2 1006.1 0.0
17/01:30pm 38.0 33.3 7.8 16 17.2 SE 22 32 12 17 1007.8 1006.7 0.0
17/01:00pm 37.4 31.9 9.1 18 16.4 SSE 28 41 15 22 1008.1 1007.0 0.0
17/12:30pm 35.7 30.2 9.3 20 15.2 SE 28 39 15 21 1008.4 1007.3 0.0
17/12:00pm 35.6 30.5 9.2 20 15.2 SSE 26 35 14 19 1008.5 1007.4 0.0
17/11:30am 35.8 29.6 9.3 20 15.3 SSE 32 43 17 23 1008.7 1007.6 0.0
17/11:00am 34.5 28.2 9.7 22 14.4 SSE 33 41 18 22 1008.9 1007.8 0.0
17/10:30am 33.9 28.2 11.1 25 13.4 S 32 41 17 22 1009.1 1008.0 0.0
17/10:00am 32.4 26.7 11.0 27 12.5 S 32 41 17 22 1009.2 1008.1 0.0
17/09:30am 31.5 25.7 10.8 28 12.0 S 32 37 17 20 1009.1 1008.0 0.0
17/09:00am 31.1 25.7 11.0 29 11.7 S 30 41 16 22 1008.7 1007.6 0.0
17/08:30am 30.6 24.9 11.1 30 11.3 S 32 41 17 22 1008.6 1007.5 0.0
17/08:00am 30.2 24.7 11.7 32 10.8 S 32 43 17 23 1008.3 1007.2 0.0
17/07:30am 30.0 24.9 12.0 33 10.6 S 30 39 16 21 1007.9 1006.8 0.0
17/07:00am 30.1 24.9 11.6 32 10.8 SSW 30 37 16 20 1006.8 1005.7 0.0
17/06:30am 30.5 25.7 11.5 31 11.1 SSW 28 35 15 19 1007.0 1005.9 0.0
17/06:00am 31.0 26.1 11.4 30 11.5 S 28 39 15 21 1005.9 1004.7 0.0
17/05:30am 31.3 26.8 10.1 27 12.2 SSW 24 30 13 16 1005.9 1004.7 0.0
17/05:00am 31.7 27.9 9.8 26 12.6 SSW 20 24 11 13 1005.7 1004.5 0.0
17/04:30am 32.3 28.0 9.2 24 13.1 S 22 28 12 15 1005.3 1004.1 0.0
17/04:00am 32.9 27.7 9.0 23 13.6 S 26 37 14 20 1005.1 1003.9 0.0
17/03:30am 33.4 28.8 8.1 21 14.2 SSE 22 30 12 16 1005.0 1003.8 0.0
17/03:00am 33.1 29.9 8.5 22 13.9 SSE 15 19 8 10 1005.1 1003.9 0.0
17/02:30am 33.2 30.0 8.6 22 13.9 S 15 17 8 9 1005.3 1004.1 0.0
17/02:00am 33.8 31.0 8.4 21 14.4 S 13 17 7 9 1005.6 1004.4 0.0
17/01:30am 34.9 31.9 7.9 19 15.2 SE 13 17 7 9 1005.6 1004.4 0.0
17/01:00am 35.1 32.2 8.0 19 15.3 SE 13 17 7 9 1005.8 1004.6 0.0
17/12:30am 34.9 31.9 7.9 19 15.2 ESE 13 17 7 9 1005.2 1004.0 0.0
17/12:00am 35.0 31.7 7.9 19 15.3 E 15 19 8 10 1004.9 1003.7 0.0
 
Date/Time
EDT
Temp
°C
App
Temp
°C
Dew
Point
°C
Rel
Hum
%
Delta-T
°C
Wind Press
QNH
hPa
Press
MSL
hPa
Rain since
9am
mm
Dir  Spd
km/h
Gust
km/h
Spd
kts
Gust
kts
16/11:30pm 35.6 31.8 7.6 18 15.7 E 17 20 9 11 1004.7 1003.5 0.0
16/11:00pm 36.3 32.1 7.4 17 16.3 E 19 20 10 11 1004.9 1003.7 0.0
16/10:30pm 36.8 32.5 6.9 16 16.7 E 19 24 10 13 1004.7 1003.5 0.0
16/10:00pm 37.3 32.7 6.3 15 17.3 E 20 26 11 14 1004.6 1003.4 0.0
16/09:30pm 37.8 33.4 6.7 15 17.4 E 19 24 10 13 1004.1 1002.9 0.0
16/09:00pm 38.4 33.7 6.2 14 18.0 E 20 26 11 14 1003.9 1002.7 0.0
16/08:30pm 38.8 34.0 5.4 13 18.5 E 20 28 11 15 1003.8 1002.6 0.0
16/08:00pm 39.4 35.0 4.7 12 19.1 ESE 17 22 9 12 1003.6 1002.4 0.0
16/07:30pm 40.0 35.7 5.2 12 19.3 ESE 17 24 9 13 1003.3 1002.1 0.0
16/07:00pm 40.3 35.4 4.2 11 19.8 E 19 24 10 13 1003.1 1002.0 0.0
16/06:30pm 40.8 36.4 4.6 11 20.0 ENE 17 24 9 13 1003.0 1001.9 0.0
16/06:00pm 41.6 37.0 3.8 10 20.8 ESE 17 22 9 12 1003.0 1001.9 0.0
16/05:30pm 41.8 38.4 4.0 10 20.8 NNE 11 17 6 9 1003.1 1002.0 0.0
16/05:00pm 41.6 37.4 3.8 10 20.7 SE 15 24 8 13 1003.4 1002.2 0.0
16/04:30pm 41.0 37.3 4.7 11 20.1 S 13 19 7 10 1003.9 1002.7 0.0
16/04:00pm 40.3 37.7 4.2 11 19.8 NW 7 17 4 9 1004.1 1002.9 0.0
16/03:30pm 40.1 35.2 4.0 11 19.7 NNE 19 28 10 15 1004.3 1003.1 0.0
16/03:00pm 40.5 36.8 4.3 11 19.9 ESE 13 26 7 14 1004.5 1003.3 0.0
16/02:30pm 40.0 36.4 5.2 12 19.3 NNE 13 28 7 15 1004.9 1003.7 0.0
16/02:00pm 39.6 35.6 4.9 12 19.2 ENE 15 24 8 13 1005.3 1004.1 0.0
16/01:30pm 38.5 34.9 5.2 13 18.3 ENE 13 24 7 13 1005.8 1004.6 0.0
16/01:00pm 38.8 34.9 5.4 13 18.5 NNE 15 26 8 14 1006.3 1005.2 0.0
16/12:30pm 37.6 33.4 5.6 14 17.6 ENE 17 26 9 14 1006.7 1005.6 0.0
16/12:00pm 37.4 33.3 6.4 15 17.3 ENE 17 28 9 15 1006.9 1005.8 0.0
16/11:30am 36.3 32.3 6.5 16 16.5 ENE 17 22 9 12 1007.0 1005.9 0.0
16/11:00am 35.4 31.4 6.6 17 16.0 ENE 17 26 9 14 1007.3 1006.2 0.0
16/10:30am 34.6 30.6 6.8 18 15.4 ENE 17 20 9 11 1007.4 1006.3 0.0
16/10:00am 34.2 30.3 7.3 19 15.0 ENE 17 24 9 13 1007.5 1006.4 0.0
16/09:30am 32.5 27.9 6.7 20 14.1 ENE 20 28 11 15 1007.3 1006.2 0.0
16/09:00am 31.1 27.6 8.8 25 12.5 ENE 17 20 9 11 1007.2 1006.1 0.0
16/08:30am 28.9 25.5 9.1 29 11.0 E 17 20 9 11 1006.8 1005.7 0.0
16/08:00am 27.8 25.3 9.6 32 10.2 E 13 17 7 9 1006.6 1005.5 0.0
16/07:30am 26.9 24.3 9.3 33 9.8 ESE 13 17 7 9 1006.5 1005.4 0.0
16/07:00am 24.7 21.9 8.6 36 8.7 ESE 13 15 7 8 1006.2 1005.0 0.0
16/06:30am 24.7 21.8 8.2 35 8.9 ESE 13 13 7 7 1005.9 1004.7 0.0
16/06:00am 24.0 21.9 8.4 37 8.4 E 9 11 5 6 1005.6 1004.4 0.0
16/05:30am 25.0 23.4 8.1 34 9.1 E 6 7 3 4 1005.4 1004.2 0.0
16/05:00am 24.3 22.1 7.9 35 8.8 E 9 9 5 5 1005.1 1003.9 0.0
16/04:30am 24.9 22.7 8.0 34 9.1 E 9 11 5 6 1004.9 1003.7 0.0
16/04:00am 25.2 22.7 8.2 34 9.2 E 11 13 6 7 1005.0 1003.8 0.0
16/03:30am 26.3 23.3 7.8 31 10.0 ESE 13 17 7 9 1005.1 1003.9 0.0
16/03:00am 26.6 24.7 7.6 30 10.2 E 7 9 4 5 1005.4 1004.2 0.0
16/02:30am 27.1 25.2 7.5 29 10.5 E 7 9 4 5 1005.8 1004.6 0.0
16/02:00am 27.8 25.8 7.1 27 11.1 E 7 9 4 5 1005.8 1004.6 0.0
16/01:30am 28.2 25.9 7.4 27 11.2 ESE 9 9 5 5 1006.0 1004.8 0.0
16/01:00am 27.8 25.4 7.1 27 11.1 ESE 9 11 5 6 1006.2 1005.0 0.0
16/12:30am 29.3 26.8 6.7 24 12.1 SE 9 11 5 6 1006.4 1005.3 0.0
16/12:00am 30.5 27.2 6.4 22 13.0 SE 13 15 7 8 1006.4 1005.3 0.0
 
Date/Time
EDT
Temp
°C
App
Temp
°C
Dew
Point
°C
Rel
Hum
%
Delta-T
°C
Wind Press
QNH
hPa
Press
MSL
hPa
Rain since
9am
mm
Dir  Spd
km/h
Gust
km/h
Spd
kts
Gust
kts
15/11:30pm 31.1 27.5 6.9 22 13.2 SSE 15 19 8 10 1005.9 1004.7 0.0
15/11:00pm 31.2 28.0 7.0 22 13.2 SSE 13 17 7 9 1006.1 1004.9 0.0
15/10:30pm 31.7 28.5 6.7 21 13.6 SSE 13 15 7 8 1005.9 1004.7 0.0
15/10:00pm 32.5 28.9 6.7 20 14.1 SSE 15 17 8 9 1005.5 1004.3 0.0
15/09:30pm 33.3 29.5 5.8 18 14.9 SSE 15 19 8 10 1005.6 1004.4 0.0
15/09:00pm 34.0 29.8 5.5 17 15.4 SSE 17 20 9 11 1005.4 1004.2 0.0
15/08:30pm 34.9 30.1 5.4 16 16.0 SSE 20 26 11 14 1004.8 1003.6 0.0
15/08:00pm 35.6 31.1 5.9 16 16.3 S 19 26 10 14 1003.8 1002.6 0.0
15/07:50pm 35.8 31.1 5.1 15 16.6 SSW 19 24 10 13 1002.4 1001.3 0.0
15/07:30pm 36.3 32.1 5.5 15 16.8 S 17 22 9 12 1004.5 1003.3 0.0
15/07:25pm 36.4 31.6 4.6 14 17.1 SSW 19 28 10 15 1003.7 1002.5 0.0
15/07:11pm 36.8 31.5 4.9 14 17.3 S 22 30 12 16 1006.1 1004.9 0.0
15/07:00pm 37.1 32.2 5.2 14 17.5 SSW 20 30 11 16 1004.1 1002.9 0.0
15/06:30pm 37.5 32.7 5.5 14 17.6 SSW 20 30 11 16 1003.8 1002.6 0.0
15/06:00pm 37.1 33.2 7.1 16 16.9 SSW 17 26 9 14 1003.8 1002.6 0.0
15/05:30pm 37.4 33.2 7.3 16 17.0 SSW 19 24 10 13 1003.8 1002.6 0.0
15/05:00pm 37.1 33.4 8.0 17 16.6 S 17 26 9 14 1003.9 1002.7 0.0
15/04:30pm 36.7 31.4 6.8 16 16.7 SSW 24 39 13 21 1004.3 1003.1 0.0
15/04:00pm 36.7 31.8 6.8 16 16.8 SW 22 37 12 20 1004.4 1003.2 0.0
15/03:30pm 37.1 32.8 7.1 16 16.9 SSW 19 33 10 18 1004.6 1003.4 0.0

Other formats

Comma delimited format used in spreadsheet applications
http://www.bom.gov.au/fwo/IDN60801/IDN60801.95699.axf

JavaScript Object Notation format (JSON) in row-major order
http://www.bom.gov.au/fwo/IDN60801/IDN60801.95699.json

Data quality

Most of these data are generated automatically and are frequently updated. Quality checks on data are not normally performed. It is possible for incorrect values to appear. Refer to information at About Latest Weather Observations and please check the disclaimer before using these data.